sensor_id;sensor_type;location;lat;lon;timestamp;P1;durP1;ratioP1;P2;durP2;ratioP2
54265;SDS011;40836;39.770;2.714;2022-07-15T00:01:51;7.75;;;4.60;;
54265;SDS011;40836;39.770;2.714;2022-07-15T00:04:16;5.53;;;4.47;;
54265;SDS011;40836;39.770;2.714;2022-07-15T00:06:42;5.72;;;4.60;;
54265;SDS011;40836;39.770;2.714;2022-07-15T00:09:07;5.72;;;4.47;;
54265;SDS011;40836;39.770;2.714;2022-07-15T00:11:33;5.88;;;4.50;;
54265;SDS011;40836;39.770;2.714;2022-07-15T00:13:58;5.65;;;4.50;;
54265;SDS011;40836;39.770;2.714;2022-07-15T00:16:24;7.82;;;4.28;;
54265;SDS011;40836;39.770;2.714;2022-07-15T00:18:49;5.57;;;4.30;;
54265;SDS011;40836;39.770;2.714;2022-07-15T00:21:15;6.65;;;4.60;;
54265;SDS011;40836;39.770;2.714;2022-07-15T00:23:40;5.63;;;4.38;;
54265;SDS011;40836;39.770;2.714;2022-07-15T00:26:06;6.38;;;4.25;;
54265;SDS011;40836;39.770;2.714;2022-07-15T00:28:31;10.82;;;4.90;;
54265;SDS011;40836;39.770;2.714;2022-07-15T00:30:57;8.50;;;4.53;;
54265;SDS011;40836;39.770;2.714;2022-07-15T00:33:23;7.63;;;4.55;;
54265;SDS011;40836;39.770;2.714;2022-07-15T00:35:48;8.05;;;4.60;;
54265;SDS011;40836;39.770;2.714;2022-07-15T00:38:14;5.95;;;4.43;;
54265;SDS011;40836;39.770;2.714;2022-07-15T00:40:41;5.88;;;4.78;;
54265;SDS011;40836;39.770;2.714;2022-07-15T00:43:08;6.50;;;5.00;;
54265;SDS011;40836;39.770;2.714;2022-07-15T00:45:34;6.32;;;4.50;;
54265;SDS011;40836;39.770;2.714;2022-07-15T00:47:59;5.40;;;4.60;;
54265;SDS011;40836;39.770;2.714;2022-07-15T00:50:26;6.13;;;4.45;;
54265;SDS011;40836;39.770;2.714;2022-07-15T00:52:57;6.43;;;5.00;;
54265;SDS011;40836;39.770;2.714;2022-07-15T00:55:39;6.13;;;5.10;;
54265;SDS011;40836;39.770;2.714;2022-07-15T00:58:07;5.32;;;4.80;;
54265;SDS011;40836;39.770;2.714;2022-07-15T01:00:35;6.45;;;5.05;;
54265;SDS011;40836;39.770;2.714;2022-07-15T01:03:01;7.60;;;5.22;;
54265;SDS011;40836;39.770;2.714;2022-07-15T01:05:27;9.30;;;5.30;;
54265;SDS011;40836;39.770;2.714;2022-07-15T01:07:53;6.32;;;5.28;;
54265;SDS011;40836;39.770;2.714;2022-07-15T01:10:20;5.35;;;4.80;;
54265;SDS011;40836;39.770;2.714;2022-07-15T01:12:47;6.03;;;5.00;;
54265;SDS011;40836;39.770;2.714;2022-07-15T01:15:14;7.38;;;4.85;;
54265;SDS011;40836;39.770;2.714;2022-07-15T01:17:40;7.45;;;4.45;;
54265;SDS011;40836;39.770;2.714;2022-07-15T01:20:06;7.18;;;4.60;;
54265;SDS011;40836;39.770;2.714;2022-07-15T01:22:33;5.35;;;4.30;;
54265;SDS011;40836;39.770;2.714;2022-07-15T01:24:59;7.32;;;4.60;;
54265;SDS011;40836;39.770;2.714;2022-07-15T01:27:25;9.05;;;4.50;;
54265;SDS011;40836;39.770;2.714;2022-07-15T01:29:50;6.40;;;5.00;;
54265;SDS011;40836;39.770;2.714;2022-07-15T01:32:16;7.05;;;5.30;;
54265;SDS011;40836;39.770;2.714;2022-07-15T01:34:42;6.72;;;4.90;;
54265;SDS011;40836;39.770;2.714;2022-07-15T01:37:08;6.70;;;5.30;;
54265;SDS011;40836;39.770;2.714;2022-07-15T01:39:33;6.97;;;5.22;;
54265;SDS011;40836;39.770;2.714;2022-07-15T01:41:59;5.55;;;4.70;;
54265;SDS011;40836;39.770;2.714;2022-07-15T01:44:24;5.13;;;4.60;;
54265;SDS011;40836;39.770;2.714;2022-07-15T01:46:50;5.65;;;4.72;;
54265;SDS011;40836;39.770;2.714;2022-07-15T01:49:15;5.90;;;4.30;;
54265;SDS011;40836;39.770;2.714;2022-07-15T01:51:47;5.65;;;4.40;;
54265;SDS011;40836;39.770;2.714;2022-07-15T01:54:22;6.32;;;4.70;;
54265;SDS011;40836;39.770;2.714;2022-07-15T01:56:49;6.25;;;4.53;;
54265;SDS011;40836;39.770;2.714;2022-07-15T01:59:16;6.63;;;4.60;;
54265;SDS011;40836;39.770;2.714;2022-07-15T02:01:42;5.60;;;4.32;;
54265;SDS011;40836;39.770;2.714;2022-07-15T02:04:08;7.75;;;4.60;;
54265;SDS011;40836;39.770;2.714;2022-07-15T02:06:34;4.70;;;4.28;;
54265;SDS011;40836;39.770;2.714;2022-07-15T02:09:00;7.50;;;4.38;;
54265;SDS011;40836;39.770;2.714;2022-07-15T02:11:26;5.25;;;4.75;;
54265;SDS011;40836;39.770;2.714;2022-07-15T02:13:52;6.38;;;4.93;;
54265;SDS011;40836;39.770;2.714;2022-07-15T02:16:21;5.53;;;4.93;;
54265;SDS011;40836;39.770;2.714;2022-07-15T02:18:46;7.13;;;5.30;;
54265;SDS011;40836;39.770;2.714;2022-07-15T02:21:12;5.03;;;4.53;;
54265;SDS011;40836;39.770;2.714;2022-07-15T02:23:37;7.00;;;4.72;;
54265;SDS011;40836;39.770;2.714;2022-07-15T02:26:03;7.10;;;4.40;;
54265;SDS011;40836;39.770;2.714;2022-07-15T02:28:28;5.28;;;4.60;;
54265;SDS011;40836;39.770;2.714;2022-07-15T02:30:54;5.93;;;4.65;;
54265;SDS011;40836;39.770;2.714;2022-07-15T02:33:19;6.45;;;4.57;;
54265;SDS011;40836;39.770;2.714;2022-07-15T02:35:45;5.88;;;4.90;;
54265;SDS011;40836;39.770;2.714;2022-07-15T02:38:11;6.38;;;5.07;;
54265;SDS011;40836;39.770;2.714;2022-07-15T02:40:36;8.05;;;5.22;;
54265;SDS011;40836;39.770;2.714;2022-07-15T02:43:02;7.15;;;5.38;;
54265;SDS011;40836;39.770;2.714;2022-07-15T02:45:29;6.53;;;5.38;;
54265;SDS011;40836;39.770;2.714;2022-07-15T02:47:55;5.38;;;4.85;;
54265;SDS011;40836;39.770;2.714;2022-07-15T02:50:21;5.35;;;4.57;;
54265;SDS011;40836;39.770;2.714;2022-07-15T02:52:47;8.63;;;5.07;;
54265;SDS011;40836;39.770;2.714;2022-07-15T02:55:13;6.97;;;5.00;;
54265;SDS011;40836;39.770;2.714;2022-07-15T02:57:40;5.70;;;4.65;;
54265;SDS011;40836;39.770;2.714;2022-07-15T03:00:07;8.45;;;4.97;;
54265;SDS011;40836;39.770;2.714;2022-07-15T03:02:36;8.38;;;4.70;;
54265;SDS011;40836;39.770;2.714;2022-07-15T03:05:02;8.40;;;5.10;;
54265;SDS011;40836;39.770;2.714;2022-07-15T03:07:28;5.63;;;5.03;;
54265;SDS011;40836;39.770;2.714;2022-07-15T03:09:54;5.75;;;4.80;;
54265;SDS011;40836;39.770;2.714;2022-07-15T03:12:19;9.90;;;5.00;;
54265;SDS011;40836;39.770;2.714;2022-07-15T03:14:45;6.75;;;5.07;;
54265;SDS011;40836;39.770;2.714;2022-07-15T03:17:10;5.53;;;4.50;;
54265;SDS011;40836;39.770;2.714;2022-07-15T03:19:36;10.10;;;5.43;;
54265;SDS011;40836;39.770;2.714;2022-07-15T03:22:01;10.20;;;5.05;;
54265;SDS011;40836;39.770;2.714;2022-07-15T03:24:27;8.88;;;5.43;;
54265;SDS011;40836;39.770;2.714;2022-07-15T03:26:52;10.93;;;5.40;;
54265;SDS011;40836;39.770;2.714;2022-07-15T03:29:18;9.48;;;5.18;;
54265;SDS011;40836;39.770;2.714;2022-07-15T03:31:44;11.23;;;5.18;;
54265;SDS011;40836;39.770;2.714;2022-07-15T03:34:09;6.45;;;4.82;;
54265;SDS011;40836;39.770;2.714;2022-07-15T03:36:38;12.50;;;5.20;;
54265;SDS011;40836;39.770;2.714;2022-07-15T03:39:05;6.03;;;5.03;;
54265;SDS011;40836;39.770;2.714;2022-07-15T03:41:31;7.40;;;5.40;;
54265;SDS011;40836;39.770;2.714;2022-07-15T03:43:56;7.63;;;5.38;;
54265;SDS011;40836;39.770;2.714;2022-07-15T03:46:22;7.47;;;5.50;;
54265;SDS011;40836;39.770;2.714;2022-07-15T03:48:47;10.15;;;5.15;;
54265;SDS011;40836;39.770;2.714;2022-07-15T03:51:14;5.97;;;5.13;;
54265;SDS011;40836;39.770;2.714;2022-07-15T03:53:40;8.18;;;5.35;;
54265;SDS011;40836;39.770;2.714;2022-07-15T03:56:06;9.82;;;5.35;;
54265;SDS011;40836;39.770;2.714;2022-07-15T03:58:31;6.63;;;5.57;;
54265;SDS011;40836;39.770;2.714;2022-07-15T04:00:57;6.38;;;5.57;;
54265;SDS011;40836;39.770;2.714;2022-07-15T04:03:22;8.57;;;5.88;;
54265;SDS011;40836;39.770;2.714;2022-07-15T04:05:48;7.18;;;5.55;;
54265;SDS011;40836;39.770;2.714;2022-07-15T04:08:14;5.95;;;5.32;;
54265;SDS011;40836;39.770;2.714;2022-07-15T04:10:40;6.28;;;5.55;;
54265;SDS011;40836;39.770;2.714;2022-07-15T04:13:06;7.07;;;5.70;;
54265;SDS011;40836;39.770;2.714;2022-07-15T04:15:31;6.10;;;5.50;;
54265;SDS011;40836;39.770;2.714;2022-07-15T04:17:57;7.57;;;5.38;;
54265;SDS011;40836;39.770;2.714;2022-07-15T04:20:23;14.57;;;5.90;;
54265;SDS011;40836;39.770;2.714;2022-07-15T04:22:49;11.05;;;5.30;;
54265;SDS011;40836;39.770;2.714;2022-07-15T04:25:17;8.93;;;5.85;;
54265;SDS011;40836;39.770;2.714;2022-07-15T04:27:44;6.93;;;5.45;;
54265;SDS011;40836;39.770;2.714;2022-07-15T04:30:10;9.55;;;5.68;;
54265;SDS011;40836;39.770;2.714;2022-07-15T04:32:37;8.05;;;5.50;;
54265;SDS011;40836;39.770;2.714;2022-07-15T04:35:04;7.85;;;5.20;;
54265;SDS011;40836;39.770;2.714;2022-07-15T04:37:30;7.78;;;5.15;;
54265;SDS011;40836;39.770;2.714;2022-07-15T04:39:56;6.22;;;5.25;;
54265;SDS011;40836;39.770;2.714;2022-07-15T04:42:22;7.70;;;5.15;;
54265;SDS011;40836;39.770;2.714;2022-07-15T04:44:48;11.70;;;5.80;;
54265;SDS011;40836;39.770;2.714;2022-07-15T04:47:14;10.10;;;5.20;;
54265;SDS011;40836;39.770;2.714;2022-07-15T04:49:40;8.10;;;5.15;;
54265;SDS011;40836;39.770;2.714;2022-07-15T04:52:24;8.35;;;5.63;;
54265;SDS011;40836;39.770;2.714;2022-07-15T04:54:53;18.25;;;6.60;;
54265;SDS011;40836;39.770;2.714;2022-07-15T04:57:19;9.32;;;5.90;;
54265;SDS011;40836;39.770;2.714;2022-07-15T04:59:45;8.48;;;5.60;;
54265;SDS011;40836;39.770;2.714;2022-07-15T05:02:11;13.65;;;6.10;;
54265;SDS011;40836;39.770;2.714;2022-07-15T05:04:37;11.27;;;5.68;;
54265;SDS011;40836;39.770;2.714;2022-07-15T05:07:04;11.93;;;5.40;;
54265;SDS011;40836;39.770;2.714;2022-07-15T05:09:30;9.82;;;5.78;;
54265;SDS011;40836;39.770;2.714;2022-07-15T05:11:56;8.43;;;5.60;;
54265;SDS011;40836;39.770;2.714;2022-07-15T05:14:22;7.70;;;6.05;;
54265;SDS011;40836;39.770;2.714;2022-07-15T05:16:48;11.52;;;6.00;;
54265;SDS011;40836;39.770;2.714;2022-07-15T05:19:13;8.90;;;5.82;;
54265;SDS011;40836;39.770;2.714;2022-07-15T05:21:39;8.27;;;5.60;;
54265;SDS011;40836;39.770;2.714;2022-07-15T05:24:04;11.00;;;5.70;;
54265;SDS011;40836;39.770;2.714;2022-07-15T05:26:30;11.52;;;5.90;;
54265;SDS011;40836;39.770;2.714;2022-07-15T05:28:55;10.18;;;5.85;;
54265;SDS011;40836;39.770;2.714;2022-07-15T05:31:21;8.93;;;5.95;;
54265;SDS011;40836;39.770;2.714;2022-07-15T05:33:47;12.18;;;6.10;;
54265;SDS011;40836;39.770;2.714;2022-07-15T05:36:13;14.50;;;6.30;;
54265;SDS011;40836;39.770;2.714;2022-07-15T05:38:40;10.75;;;6.60;;
54265;SDS011;40836;39.770;2.714;2022-07-15T05:41:06;16.10;;;6.85;;
54265;SDS011;40836;39.770;2.714;2022-07-15T05:43:32;13.50;;;7.28;;
54265;SDS011;40836;39.770;2.714;2022-07-15T05:45:58;8.77;;;6.60;;
54265;SDS011;40836;39.770;2.714;2022-07-15T05:48:23;10.95;;;6.88;;
54265;SDS011;40836;39.770;2.714;2022-07-15T05:50:48;17.05;;;6.43;;
54265;SDS011;40836;39.770;2.714;2022-07-15T05:53:14;9.93;;;6.15;;
54265;SDS011;40836;39.770;2.714;2022-07-15T05:55:40;13.80;;;6.30;;
54265;SDS011;40836;39.770;2.714;2022-07-15T05:58:07;21.88;;;7.03;;
54265;SDS011;40836;39.770;2.714;2022-07-15T06:00:32;12.88;;;6.18;;
54265;SDS011;40836;39.770;2.714;2022-07-15T06:02:58;10.63;;;5.68;;
54265;SDS011;40836;39.770;2.714;2022-07-15T06:05:24;9.95;;;5.57;;
54265;SDS011;40836;39.770;2.714;2022-07-15T06:07:49;7.45;;;5.70;;
54265;SDS011;40836;39.770;2.714;2022-07-15T06:10:15;11.02;;;5.32;;
54265;SDS011;40836;39.770;2.714;2022-07-15T06:12:40;11.07;;;5.28;;
54265;SDS011;40836;39.770;2.714;2022-07-15T06:15:06;7.82;;;5.18;;
54265;SDS011;40836;39.770;2.714;2022-07-15T06:17:32;8.75;;;5.68;;
54265;SDS011;40836;39.770;2.714;2022-07-15T06:19:58;10.60;;;5.15;;
54265;SDS011;40836;39.770;2.714;2022-07-15T06:22:24;7.03;;;5.22;;
54265;SDS011;40836;39.770;2.714;2022-07-15T06:24:50;7.47;;;4.80;;
54265;SDS011;40836;39.770;2.714;2022-07-15T06:27:15;10.25;;;5.15;;
54265;SDS011;40836;39.770;2.714;2022-07-15T06:29:41;16.13;;;4.57;;
54265;SDS011;40836;39.770;2.714;2022-07-15T06:32:06;9.52;;;4.57;;
54265;SDS011;40836;39.770;2.714;2022-07-15T06:34:32;11.73;;;4.35;;
54265;SDS011;40836;39.770;2.714;2022-07-15T06:36:58;5.88;;;4.40;;
54265;SDS011;40836;39.770;2.714;2022-07-15T06:39:24;7.95;;;3.90;;
54265;SDS011;40836;39.770;2.714;2022-07-15T06:41:49;6.15;;;4.40;;
54265;SDS011;40836;39.770;2.714;2022-07-15T06:44:15;5.82;;;3.97;;
54265;SDS011;40836;39.770;2.714;2022-07-15T06:46:41;6.07;;;3.80;;
54265;SDS011;40836;39.770;2.714;2022-07-15T06:49:07;6.65;;;3.78;;
54265;SDS011;40836;39.770;2.714;2022-07-15T06:51:33;7.40;;;3.70;;
54265;SDS011;40836;39.770;2.714;2022-07-15T06:53:58;9.60;;;3.78;;
54265;SDS011;40836;39.770;2.714;2022-07-15T06:56:24;7.07;;;3.65;;
54265;SDS011;40836;39.770;2.714;2022-07-15T06:58:49;4.75;;;3.95;;
54265;SDS011;40836;39.770;2.714;2022-07-15T07:01:15;6.18;;;3.95;;
54265;SDS011;40836;39.770;2.714;2022-07-15T07:03:40;11.55;;;4.10;;
54265;SDS011;40836;39.770;2.714;2022-07-15T07:06:05;6.15;;;3.80;;
54265;SDS011;40836;39.770;2.714;2022-07-15T07:08:31;6.85;;;3.78;;
54265;SDS011;40836;39.770;2.714;2022-07-15T07:10:57;7.57;;;4.32;;
54265;SDS011;40836;39.770;2.714;2022-07-15T07:13:22;7.40;;;4.20;;
54265;SDS011;40836;39.770;2.714;2022-07-15T07:15:48;7.60;;;4.57;;
54265;SDS011;40836;39.770;2.714;2022-07-15T07:18:14;4.03;;;3.50;;
54265;SDS011;40836;39.770;2.714;2022-07-15T07:20:40;8.00;;;3.83;;
54265;SDS011;40836;39.770;2.714;2022-07-15T07:23:08;8.25;;;3.70;;
54265;SDS011;40836;39.770;2.714;2022-07-15T07:25:37;4.40;;;3.10;;
54265;SDS011;40836;39.770;2.714;2022-07-15T07:28:02;4.82;;;3.10;;
54265;SDS011;40836;39.770;2.714;2022-07-15T07:30:31;7.10;;;2.95;;
54265;SDS011;40836;39.770;2.714;2022-07-15T07:32:57;7.25;;;3.75;;
54265;SDS011;40836;39.770;2.714;2022-07-15T07:35:23;5.03;;;3.70;;
54265;SDS011;40836;39.770;2.714;2022-07-15T07:37:49;4.45;;;3.30;;
54265;SDS011;40836;39.770;2.714;2022-07-15T07:40:14;6.10;;;3.20;;
54265;SDS011;40836;39.770;2.714;2022-07-15T07:42:42;5.45;;;3.30;;
54265;SDS011;40836;39.770;2.714;2022-07-15T07:45:09;6.65;;;3.00;;
54265;SDS011;40836;39.770;2.714;2022-07-15T07:47:36;5.55;;;3.17;;
54265;SDS011;40836;39.770;2.714;2022-07-15T07:50:05;8.63;;;3.13;;
54265;SDS011;40836;39.770;2.714;2022-07-15T07:52:32;15.73;;;3.50;;
54265;SDS011;40836;39.770;2.714;2022-07-15T07:54:58;4.88;;;2.85;;
54265;SDS011;40836;39.770;2.714;2022-07-15T07:57:23;5.68;;;2.65;;
54265;SDS011;40836;39.770;2.714;2022-07-15T07:59:49;5.15;;;2.80;;
54265;SDS011;40836;39.770;2.714;2022-07-15T08:02:14;5.43;;;2.70;;
54265;SDS011;40836;39.770;2.714;2022-07-15T08:04:40;4.40;;;3.00;;
54265;SDS011;40836;39.770;2.714;2022-07-15T08:07:06;3.33;;;2.63;;
54265;SDS011;40836;39.770;2.714;2022-07-15T08:09:32;3.78;;;2.83;;
54265;SDS011;40836;39.770;2.714;2022-07-15T08:11:58;7.82;;;2.70;;
54265;SDS011;40836;39.770;2.714;2022-07-15T08:14:24;6.38;;;2.75;;
54265;SDS011;40836;39.770;2.714;2022-07-15T08:16:49;5.88;;;2.50;;
54265;SDS011;40836;39.770;2.714;2022-07-15T08:19:15;3.17;;;2.50;;
54265;SDS011;40836;39.770;2.714;2022-07-15T08:21:44;5.00;;;2.60;;
54265;SDS011;40836;39.770;2.714;2022-07-15T08:24:11;4.28;;;2.30;;
54265;SDS011;40836;39.770;2.714;2022-07-15T08:26:37;4.63;;;2.58;;
54265;SDS011;40836;39.770;2.714;2022-07-15T08:29:03;3.33;;;2.40;;
54265;SDS011;40836;39.770;2.714;2022-07-15T08:31:29;4.07;;;2.40;;
54265;SDS011;40836;39.770;2.714;2022-07-15T08:34:00;5.70;;;2.40;;
54265;SDS011;40836;39.770;2.714;2022-07-15T08:36:25;2.97;;;2.38;;
54265;SDS011;40836;39.770;2.714;2022-07-15T08:38:51;3.67;;;2.55;;
54265;SDS011;40836;39.770;2.714;2022-07-15T08:41:17;5.22;;;2.38;;
54265;SDS011;40836;39.770;2.714;2022-07-15T08:43:42;4.95;;;2.35;;
54265;SDS011;40836;39.770;2.714;2022-07-15T08:46:08;3.65;;;2.30;;
54265;SDS011;40836;39.770;2.714;2022-07-15T08:48:35;3.75;;;2.30;;
54265;SDS011;40836;39.770;2.714;2022-07-15T08:51:03;5.03;;;2.30;;
54265;SDS011;40836;39.770;2.714;2022-07-15T08:53:29;5.93;;;2.45;;
54265;SDS011;40836;39.770;2.714;2022-07-15T08:55:56;3.72;;;2.33;;
54265;SDS011;40836;39.770;2.714;2022-07-15T08:58:22;3.72;;;2.20;;
54265;SDS011;40836;39.770;2.714;2022-07-15T09:00:48;5.32;;;2.22;;
54265;SDS011;40836;39.770;2.714;2022-07-15T09:03:14;2.20;;;2.00;;
54265;SDS011;40836;39.770;2.714;2022-07-15T09:05:40;3.63;;;2.20;;
54265;SDS011;40836;39.770;2.714;2022-07-15T09:10:41;3.90;;;2.25;;
54265;SDS011;40836;39.770;2.714;2022-07-15T09:15:51;3.53;;;2.28;;
54265;SDS011;40836;39.770;2.714;2022-07-15T09:18:20;2.80;;;2.05;;
54265;SDS011;40836;39.770;2.714;2022-07-15T09:20:48;2.92;;;2.13;;
54265;SDS011;40836;39.770;2.714;2022-07-15T09:23:15;5.97;;;2.10;;
54265;SDS011;40836;39.770;2.714;2022-07-15T09:25:48;3.65;;;2.10;;
54265;SDS011;40836;39.770;2.714;2022-07-15T09:28:17;5.25;;;2.28;;
54265;SDS011;40836;39.770;2.714;2022-07-15T09:30:44;3.75;;;2.10;;
54265;SDS011;40836;39.770;2.714;2022-07-15T09:33:31;4.55;;;2.30;;
54265;SDS011;40836;39.770;2.714;2022-07-15T09:36:10;5.25;;;2.15;;
54265;SDS011;40836;39.770;2.714;2022-07-15T09:38:45;3.33;;;2.30;;
54265;SDS011;40836;39.770;2.714;2022-07-15T09:43:46;3.30;;;2.10;;
54265;SDS011;40836;39.770;2.714;2022-07-15T09:46:16;3.45;;;1.95;;
54265;SDS011;40836;39.770;2.714;2022-07-15T09:48:43;4.50;;;1.95;;
54265;SDS011;40836;39.770;2.714;2022-07-15T09:51:10;4.65;;;1.98;;
54265;SDS011;40836;39.770;2.714;2022-07-15T09:53:37;4.72;;;1.90;;
54265;SDS011;40836;39.770;2.714;2022-07-15T09:56:04;4.25;;;2.20;;
54265;SDS011;40836;39.770;2.714;2022-07-15T09:58:31;6.57;;;2.30;;
54265;SDS011;40836;39.770;2.714;2022-07-15T10:00:56;2.78;;;1.80;;
54265;SDS011;40836;39.770;2.714;2022-07-15T10:03:22;3.13;;;2.10;;
54265;SDS011;40836;39.770;2.714;2022-07-15T10:05:52;6.95;;;1.90;;
54265;SDS011;40836;39.770;2.714;2022-07-15T10:08:21;2.15;;;1.80;;
54265;SDS011;40836;39.770;2.714;2022-07-15T10:10:47;4.28;;;1.80;;
54265;SDS011;40836;39.770;2.714;2022-07-15T10:16:09;2.70;;;2.00;;
54265;SDS011;40836;39.770;2.714;2022-07-15T10:27:29;2.33;;;1.63;;
54265;SDS011;40836;39.770;2.714;2022-07-15T10:30:05;2.97;;;1.80;;
54265;SDS011;40836;39.770;2.714;2022-07-15T10:35:42;3.20;;;1.90;;
54265;SDS011;40836;39.770;2.714;2022-07-15T10:43:49;2.47;;;1.70;;
54265;SDS011;40836;39.770;2.714;2022-07-15T10:46:20;2.75;;;1.70;;
54265;SDS011;40836;39.770;2.714;2022-07-15T10:56:43;3.20;;;1.70;;
54265;SDS011;40836;39.770;2.714;2022-07-15T11:14:52;4.05;;;1.65;;
54265;SDS011;40836;39.770;2.714;2022-07-15T11:17:23;2.83;;;1.70;;
54265;SDS011;40836;39.770;2.714;2022-07-15T11:20:05;3.28;;;1.48;;
54265;SDS011;40836;39.770;2.714;2022-07-15T11:22:49;3.15;;;1.60;;
54265;SDS011;40836;39.770;2.714;2022-07-15T11:25:20;2.17;;;1.40;;
54265;SDS011;40836;39.770;2.714;2022-07-15T11:28:02;3.63;;;1.60;;
54265;SDS011;40836;39.770;2.714;2022-07-15T11:33:03;3.85;;;1.50;;
54265;SDS011;40836;39.770;2.714;2022-07-15T11:35:31;2.03;;;1.55;;
54265;SDS011;40836;39.770;2.714;2022-07-15T11:38:08;2.85;;;1.50;;
54265;SDS011;40836;39.770;2.714;2022-07-15T11:40:34;2.45;;;1.45;;
54265;SDS011;40836;39.770;2.714;2022-07-15T11:43:18;4.10;;;2.00;;
54265;SDS011;40836;39.770;2.714;2022-07-15T11:46:04;2.60;;;1.45;;
54265;SDS011;40836;39.770;2.714;2022-07-15T11:48:34;1.65;;;1.45;;
54265;SDS011;40836;39.770;2.714;2022-07-15T11:51:01;2.92;;;1.60;;
54265;SDS011;40836;39.770;2.714;2022-07-15T11:53:27;2.53;;;1.63;;
54265;SDS011;40836;39.770;2.714;2022-07-15T11:55:56;3.47;;;1.50;;
54265;SDS011;40836;39.770;2.714;2022-07-15T11:58:27;2.42;;;1.60;;
54265;SDS011;40836;39.770;2.714;2022-07-15T12:00:57;2.05;;;1.58;;
54265;SDS011;40836;39.770;2.714;2022-07-15T12:03:29;3.40;;;1.63;;
54265;SDS011;40836;39.770;2.714;2022-07-15T12:06:03;3.13;;;1.42;;
54265;SDS011;40836;39.770;2.714;2022-07-15T12:11:29;4.97;;;1.52;;
54265;SDS011;40836;39.770;2.714;2022-07-15T12:16:34;4.65;;;1.67;;
54265;SDS011;40836;39.770;2.714;2022-07-15T12:19:06;4.35;;;1.65;;
54265;SDS011;40836;39.770;2.714;2022-07-15T12:21:33;3.22;;;1.70;;
54265;SDS011;40836;39.770;2.714;2022-07-15T12:26:35;1.90;;;1.50;;
54265;SDS011;40836;39.770;2.714;2022-07-15T12:29:04;3.40;;;1.55;;
54265;SDS011;40836;39.770;2.714;2022-07-15T12:31:31;2.55;;;1.42;;
54265;SDS011;40836;39.770;2.714;2022-07-15T12:33:59;4.22;;;1.60;;
54265;SDS011;40836;39.770;2.714;2022-07-15T12:36:25;2.33;;;1.70;;
54265;SDS011;40836;39.770;2.714;2022-07-15T12:41:41;3.45;;;1.55;;
54265;SDS011;40836;39.770;2.714;2022-07-15T12:44:08;2.58;;;1.63;;
54265;SDS011;40836;39.770;2.714;2022-07-15T12:54:51;2.88;;;1.67;;
54265;SDS011;40836;39.770;2.714;2022-07-15T12:57:25;2.15;;;1.52;;
54265;SDS011;40836;39.770;2.714;2022-07-15T12:59:58;3.22;;;1.63;;
54265;SDS011;40836;39.770;2.714;2022-07-15T13:02:31;4.43;;;1.70;;
54265;SDS011;40836;39.770;2.714;2022-07-15T13:04:57;1.70;;;1.60;;
54265;SDS011;40836;39.770;2.714;2022-07-15T13:07:23;2.33;;;1.58;;
54265;SDS011;40836;39.770;2.714;2022-07-15T13:09:49;2.13;;;1.48;;
54265;SDS011;40836;39.770;2.714;2022-07-15T13:12:15;2.92;;;1.55;;
54265;SDS011;40836;39.770;2.714;2022-07-15T13:14:41;2.28;;;1.60;;
54265;SDS011;40836;39.770;2.714;2022-07-15T13:17:07;2.40;;;1.90;;
54265;SDS011;40836;39.770;2.714;2022-07-15T13:19:32;2.35;;;1.40;;
54265;SDS011;40836;39.770;2.714;2022-07-15T13:22:01;2.38;;;1.38;;
54265;SDS011;40836;39.770;2.714;2022-07-15T13:24:27;2.17;;;1.50;;
54265;SDS011;40836;39.770;2.714;2022-07-15T13:26:53;2.15;;;1.40;;
54265;SDS011;40836;39.770;2.714;2022-07-15T13:29:19;2.05;;;1.50;;
54265;SDS011;40836;39.770;2.714;2022-07-15T13:31:44;2.08;;;1.63;;
54265;SDS011;40836;39.770;2.714;2022-07-15T13:34:10;2.15;;;1.50;;
54265;SDS011;40836;39.770;2.714;2022-07-15T13:36:35;2.45;;;1.48;;
54265;SDS011;40836;39.770;2.714;2022-07-15T13:39:03;3.53;;;1.50;;
54265;SDS011;40836;39.770;2.714;2022-07-15T13:41:28;3.78;;;1.63;;
54265;SDS011;40836;39.770;2.714;2022-07-15T13:43:54;1.88;;;1.55;;
54265;SDS011;40836;39.770;2.714;2022-07-15T13:46:19;2.35;;;1.35;;
54265;SDS011;40836;39.770;2.714;2022-07-15T13:48:45;3.90;;;1.52;;
54265;SDS011;40836;39.770;2.714;2022-07-15T13:51:10;2.58;;;1.70;;
54265;SDS011;40836;39.770;2.714;2022-07-15T13:53:48;2.05;;;1.60;;
54265;SDS011;40836;39.770;2.714;2022-07-15T13:56:15;1.88;;;1.48;;
54265;SDS011;40836;39.770;2.714;2022-07-15T13:58:41;2.45;;;1.60;;
54265;SDS011;40836;39.770;2.714;2022-07-15T14:01:07;3.88;;;1.65;;
54265;SDS011;40836;39.770;2.714;2022-07-15T14:03:32;4.28;;;1.60;;
54265;SDS011;40836;39.770;2.714;2022-07-15T14:05:58;2.50;;;1.65;;
54265;SDS011;40836;39.770;2.714;2022-07-15T14:08:23;2.92;;;1.65;;
54265;SDS011;40836;39.770;2.714;2022-07-15T14:10:49;3.28;;;1.80;;
54265;SDS011;40836;39.770;2.714;2022-07-15T14:13:14;3.85;;;2.15;;
54265;SDS011;40836;39.770;2.714;2022-07-15T14:15:40;2.08;;;1.88;;
54265;SDS011;40836;39.770;2.714;2022-07-15T14:18:06;1.60;;;1.50;;
54265;SDS011;40836;39.770;2.714;2022-07-15T14:20:31;1.90;;;1.52;;
54265;SDS011;40836;39.770;2.714;2022-07-15T14:22:57;2.25;;;1.77;;
54265;SDS011;40836;39.770;2.714;2022-07-15T14:25:23;3.45;;;1.60;;
54265;SDS011;40836;39.770;2.714;2022-07-15T14:27:48;3.03;;;1.58;;
54265;SDS011;40836;39.770;2.714;2022-07-15T14:30:14;1.80;;;1.60;;
54265;SDS011;40836;39.770;2.714;2022-07-15T14:32:41;2.35;;;1.70;;
54265;SDS011;40836;39.770;2.714;2022-07-15T14:35:07;2.97;;;1.67;;
54265;SDS011;40836;39.770;2.714;2022-07-15T14:37:33;1.75;;;1.50;;
54265;SDS011;40836;39.770;2.714;2022-07-15T14:39:58;3.00;;;1.58;;
54265;SDS011;40836;39.770;2.714;2022-07-15T14:42:24;1.60;;;1.40;;
54265;SDS011;40836;39.770;2.714;2022-07-15T14:44:49;1.90;;;1.60;;
54265;SDS011;40836;39.770;2.714;2022-07-15T14:47:16;2.33;;;1.67;;
54265;SDS011;40836;39.770;2.714;2022-07-15T14:49:42;1.98;;;1.48;;
54265;SDS011;40836;39.770;2.714;2022-07-15T14:52:07;1.73;;;1.60;;
54265;SDS011;40836;39.770;2.714;2022-07-15T14:54:33;3.03;;;1.50;;
54265;SDS011;40836;39.770;2.714;2022-07-15T14:56:59;2.33;;;1.50;;
54265;SDS011;40836;39.770;2.714;2022-07-15T14:59:24;3.88;;;1.77;;
54265;SDS011;40836;39.770;2.714;2022-07-15T15:01:50;3.10;;;1.70;;
54265;SDS011;40836;39.770;2.714;2022-07-15T15:04:15;1.90;;;1.52;;
54265;SDS011;40836;39.770;2.714;2022-07-15T15:06:40;1.40;;;1.30;;
54265;SDS011;40836;39.770;2.714;2022-07-15T15:09:06;8.02;;;2.00;;
54265;SDS011;40836;39.770;2.714;2022-07-15T15:11:31;1.92;;;1.55;;
54265;SDS011;40836;39.770;2.714;2022-07-15T15:13:57;2.17;;;1.38;;
54265;SDS011;40836;39.770;2.714;2022-07-15T15:16:22;1.70;;;1.40;;
54265;SDS011;40836;39.770;2.714;2022-07-15T15:18:48;2.40;;;1.63;;
54265;SDS011;40836;39.770;2.714;2022-07-15T15:21:13;2.10;;;1.55;;
54265;SDS011;40836;39.770;2.714;2022-07-15T15:23:39;2.08;;;1.40;;
54265;SDS011;40836;39.770;2.714;2022-07-15T15:26:04;1.60;;;1.40;;
54265;SDS011;40836;39.770;2.714;2022-07-15T15:28:50;1.55;;;1.40;;
54265;SDS011;40836;39.770;2.714;2022-07-15T15:31:20;2.97;;;1.55;;
54265;SDS011;40836;39.770;2.714;2022-07-15T15:33:46;2.75;;;1.58;;
54265;SDS011;40836;39.770;2.714;2022-07-15T15:36:12;1.70;;;1.48;;
54265;SDS011;40836;39.770;2.714;2022-07-15T15:38:37;2.78;;;1.50;;
54265;SDS011;40836;39.770;2.714;2022-07-15T15:41:03;3.05;;;1.55;;
54265;SDS011;40836;39.770;2.714;2022-07-15T15:43:28;1.83;;;1.30;;
54265;SDS011;40836;39.770;2.714;2022-07-15T15:45:54;1.88;;;1.70;;
54265;SDS011;40836;39.770;2.714;2022-07-15T15:48:20;3.40;;;1.60;;
54265;SDS011;40836;39.770;2.714;2022-07-15T15:50:45;3.38;;;1.48;;
54265;SDS011;40836;39.770;2.714;2022-07-15T15:53:11;1.92;;;1.52;;
54265;SDS011;40836;39.770;2.714;2022-07-15T15:55:36;3.00;;;1.60;;
54265;SDS011;40836;39.770;2.714;2022-07-15T15:58:02;2.83;;;1.70;;